createdAt,value
2018-07-19T00:02:06.395Z,99.90
2018-07-19T00:04:36.470Z,99.90
2018-07-19T00:07:06.684Z,99.90
2018-07-19T00:09:36.994Z,99.90
2018-07-19T00:12:07.194Z,99.90
2018-07-19T00:14:37.269Z,99.90
2018-07-19T00:17:07.517Z,99.90
2018-07-19T00:19:37.440Z,99.90
2018-07-19T00:22:07.470Z,99.90
2018-07-19T00:24:37.697Z,99.90
2018-07-19T00:27:07.634Z,99.90
2018-07-19T00:29:37.599Z,99.90
2018-07-19T00:32:07.816Z,99.90
2018-07-19T00:34:37.735Z,99.90
2018-07-19T00:37:07.831Z,99.90
2018-07-19T00:39:38.017Z,99.90
2018-07-19T00:42:07.921Z,99.90
2018-07-19T00:44:37.839Z,99.90
2018-07-19T00:47:08.136Z,99.90
2018-07-19T00:49:38.042Z,99.90
2018-07-19T00:52:08.690Z,99.90
2018-07-19T00:54:38.987Z,99.90
2018-07-19T00:57:12.686Z,99.90
2018-07-19T00:59:44.845Z,99.90
2018-07-19T01:02:15.073Z,99.90
2018-07-19T01:04:45.294Z,99.90
2018-07-19T01:07:15.237Z,99.90
2018-07-19T01:09:46.912Z,99.90
2018-07-19T01:12:23.833Z,99.90
2018-07-19T01:14:56.434Z,99.90
2018-07-19T01:17:26.812Z,99.90
2018-07-19T01:19:57.905Z,99.90
2018-07-19T01:24:58.537Z,99.90
2018-07-19T01:27:28.549Z,99.90
2018-07-19T01:29:58.925Z,99.90
2018-07-19T01:32:28.840Z,99.90
2018-07-19T01:34:58.806Z,99.90
2018-07-19T01:37:29.221Z,99.90
2018-07-19T01:39:59.201Z,99.90
2018-07-19T01:42:34.239Z,99.90
2018-07-19T01:45:04.375Z,99.90
2018-07-19T01:47:34.533Z,99.90
2018-07-19T01:50:04.854Z,99.90
2018-07-19T01:52:35.089Z,99.90
2018-07-19T01:55:05.615Z,99.90
2018-07-19T01:57:36.449Z,99.90
2018-07-19T02:00:06.528Z,99.90
2018-07-19T02:02:36.557Z,99.90
2018-07-19T02:05:06.907Z,99.90
2018-07-19T02:07:36.946Z,99.90
2018-07-19T02:10:07.028Z,99.90
2018-07-19T02:12:37.407Z,99.90
2018-07-19T02:15:08.220Z,99.90
2018-07-19T02:17:38.230Z,99.90
2018-07-19T02:20:08.915Z,99.90
2018-07-19T02:22:38.957Z,99.90
2018-07-19T02:25:08.905Z,99.90
2018-07-19T02:27:39.440Z,99.90
2018-07-19T02:30:09.442Z,99.90
2018-07-19T02:32:39.380Z,99.90
2018-07-19T02:35:09.574Z,99.90
2018-07-19T02:37:48.740Z,99.90
2018-07-19T02:40:22.029Z,99.90
2018-07-19T02:42:56.106Z,99.90
2018-07-19T02:45:28.417Z,99.90
2018-07-19T02:48:05.933Z,99.90
2018-07-19T02:50:42.228Z,99.90
2018-07-19T02:53:18.535Z,99.90
2018-07-19T02:55:49.166Z,99.90
2018-07-19T02:58:26.975Z,99.90
2018-07-19T03:01:12.084Z,99.90
2018-07-19T03:03:42.225Z,99.90
2018-07-19T03:06:13.706Z,99.90
2018-07-19T03:08:46.877Z,99.90
2018-07-19T03:11:19.068Z,99.90
2018-07-19T03:13:50.412Z,99.90
2018-07-19T03:16:27.012Z,99.90
2018-07-19T03:18:59.634Z,99.90
2018-07-19T03:21:30.820Z,99.90
2018-07-19T03:24:02.365Z,99.90
2018-07-19T03:26:34.095Z,99.90
2018-07-19T03:29:05.540Z,99.90
2018-07-19T03:31:35.662Z,99.90
2018-07-19T03:34:05.499Z,99.90
2018-07-19T03:36:36.330Z,99.90
2018-07-19T03:39:12.509Z,99.90
2018-07-19T03:44:14.983Z,99.90
2018-07-19T03:46:46.372Z,99.90
2018-07-19T03:49:17.031Z,99.90
2018-07-19T03:51:46.963Z,99.90
2018-07-19T03:54:16.817Z,99.90
2018-07-19T03:56:47.795Z,99.90
2018-07-19T03:59:17.534Z,99.90
2018-07-19T04:01:47.365Z,99.90
2018-07-19T04:04:17.617Z,99.90
2018-07-19T04:06:47.357Z,99.90
2018-07-19T04:09:17.112Z,99.90
2018-07-19T04:11:47.344Z,99.90
2018-07-19T04:14:17.390Z,99.90
2018-07-19T04:16:47.926Z,99.90
2018-07-19T04:19:18.487Z,99.90
2018-07-19T04:21:48.203Z,99.90
2018-07-19T04:24:17.986Z,99.90
2018-07-19T04:26:48.768Z,99.90
2018-07-19T04:29:18.558Z,99.90
2018-07-19T04:31:48.347Z,99.90
2018-07-19T04:34:19.104Z,99.90
2018-07-19T04:36:50.138Z,99.90
2018-07-19T04:39:19.895Z,99.90
2018-07-19T04:41:50.218Z,99.90
2018-07-19T04:44:21.013Z,99.90
2018-07-19T04:46:54.971Z,99.90
2018-07-19T04:49:33.152Z,99.90
2018-07-19T04:52:10.705Z,99.90
2018-07-19T04:54:40.949Z,99.90
2018-07-19T04:57:10.731Z,99.90
2018-07-19T04:59:40.591Z,99.90
2018-07-19T05:02:10.920Z,99.90
2018-07-19T05:04:40.721Z,99.90
2018-07-19T05:07:10.807Z,99.90
2018-07-19T05:09:41.059Z,99.90
2018-07-19T05:12:11.359Z,99.90
2018-07-19T05:14:42.023Z,99.90
2018-07-19T05:17:11.869Z,99.90
2018-07-19T05:19:41.920Z,99.90
2018-07-19T05:22:12.051Z,99.90
2018-07-19T05:24:42.213Z,99.90
2018-07-19T05:27:12.200Z,99.90
2018-07-19T05:32:18.420Z,99.90
2018-07-19T05:37:58.570Z,99.90
2018-07-19T05:40:38.493Z,99.90
2018-07-19T05:43:08.760Z,99.90
2018-07-19T05:45:38.573Z,99.90
2018-07-19T05:48:08.309Z,99.90
2018-07-19T05:50:38.608Z,99.90
2018-07-19T05:53:10.350Z,99.90
2018-07-19T05:55:40.383Z,99.90
2018-07-19T05:58:10.779Z,99.90
2018-07-19T06:00:47.308Z,99.90
2018-07-19T06:03:20.712Z,99.90
2018-07-19T06:05:53.823Z,99.90
2018-07-19T06:08:28.606Z,99.90
2018-07-19T06:11:02.872Z,99.90
2018-07-19T06:13:40.226Z,99.90
2018-07-19T06:16:14.903Z,99.90
2018-07-19T06:18:56.608Z,99.90
2018-07-19T06:21:31.999Z,99.90
2018-07-19T06:24:08.315Z,99.90
2018-07-19T06:26:41.888Z,99.90
2018-07-19T06:29:16.055Z,99.90
2018-07-19T06:31:54.813Z,99.90
2018-07-19T06:37:28.801Z,99.90
2018-07-19T06:40:09.597Z,99.90
2018-07-19T06:43:11.759Z,99.90
2018-07-19T06:45:52.678Z,99.90
2018-07-19T06:48:28.217Z,98.20
2018-07-19T06:51:08.273Z,97.00
2018-07-19T06:53:45.622Z,96.10
2018-07-19T06:56:26.563Z,96.60
2018-07-19T06:59:06.222Z,96.20
2018-07-19T07:01:41.126Z,97.80
2018-07-19T07:04:20.351Z,97.20
2018-07-19T07:07:02.453Z,96.90
2018-07-19T07:09:43.116Z,96.50
2018-07-19T07:12:31.073Z,95.20
2018-07-19T07:15:07.407Z,94.30
2018-07-19T07:17:46.048Z,95.20
2018-07-19T07:25:46.315Z,92.30
2018-07-19T07:28:25.208Z,92.10
2018-07-19T07:31:00.876Z,91.60
2018-07-19T07:36:27.622Z,93.70
2018-07-19T07:38:59.281Z,92.90
2018-07-19T07:41:32.385Z,90.90
2018-07-19T07:44:02.476Z,89.20
2018-07-19T07:46:32.789Z,88.20
2018-07-19T07:49:03.155Z,90.00
2018-07-19T07:51:34.459Z,86.00
2018-07-19T07:54:04.541Z,79.60
2018-07-19T07:56:39.865Z,81.40
2018-07-19T07:59:10.590Z,77.40
2018-07-19T08:01:51.638Z,87.80
2018-07-19T08:04:31.759Z,84.50
2018-07-19T08:07:02.667Z,88.40
2018-07-19T08:09:32.990Z,91.80
2018-07-19T08:12:03.362Z,92.20
2018-07-19T08:14:33.748Z,92.90
2018-07-19T08:17:04.010Z,92.80
2018-07-19T08:19:33.829Z,92.30
2018-07-19T08:22:03.628Z,94.40
2018-07-19T08:24:35.073Z,95.20
2018-07-19T08:27:05.604Z,92.50
2018-07-19T08:29:36.183Z,91.50
2018-07-19T08:34:40.311Z,92.30
2018-07-19T08:37:10.152Z,92.20
2018-07-19T08:39:41.070Z,93.40
2018-07-19T08:42:14.104Z,93.50
2018-07-19T08:44:44.335Z,93.90
2018-07-19T08:47:15.227Z,93.00
2018-07-19T08:49:47.189Z,92.50
2018-07-19T08:52:20.264Z,88.20
2018-07-19T08:57:22.004Z,91.10
2018-07-19T09:00:02.543Z,92.80
2018-07-19T09:02:32.491Z,94.10
2018-07-19T09:05:03.244Z,94.20
2018-07-19T09:07:35.552Z,93.40
2018-07-19T09:10:13.810Z,94.90
2018-07-19T09:12:44.551Z,94.90
2018-07-19T09:15:14.854Z,93.30
2018-07-19T09:17:45.520Z,93.80
2018-07-19T09:20:44.281Z,95.80
2018-07-19T09:23:16.319Z,93.10
2018-07-19T09:25:47.176Z,92.40
2018-07-19T09:28:17.718Z,91.80
2018-07-19T09:30:49.992Z,89.60
2018-07-19T09:33:23.004Z,90.80
2018-07-19T09:35:53.181Z,88.70
2018-07-19T09:38:25.649Z,89.80
2018-07-19T09:44:06.998Z,91.90
2018-07-19T09:46:39.327Z,93.20
2018-07-19T09:51:41.399Z,93.10
2018-07-19T09:54:16.324Z,90.30
2018-07-19T09:56:46.967Z,92.10
2018-07-19T09:59:24.737Z,93.10
2018-07-19T10:01:55.287Z,92.10
2018-07-19T10:04:41.170Z,92.00
2018-07-19T10:07:10.968Z,93.80
2018-07-19T10:09:49.082Z,93.90
2018-07-19T10:12:19.631Z,94.00
2018-07-19T10:14:49.741Z,94.90
2018-07-19T10:17:19.736Z,95.60
2018-07-19T10:19:50.162Z,95.30
2018-07-19T10:22:20.129Z,96.00
2018-07-19T10:24:50.634Z,94.20
2018-07-19T10:27:20.921Z,94.30
2018-07-19T10:29:58.598Z,95.70
2018-07-19T10:32:46.032Z,93.70
2018-07-19T10:38:25.552Z,93.10
2018-07-19T10:40:56.431Z,93.00
2018-07-19T10:43:27.768Z,95.00
2018-07-19T10:45:59.143Z,92.30
2018-07-19T10:48:29.639Z,93.40
2018-07-19T10:50:59.838Z,94.30
2018-07-19T10:53:33.996Z,92.60
2018-07-19T10:56:05.623Z,90.90
2018-07-19T10:58:35.535Z,92.10
2018-07-19T11:03:39.244Z,93.30
2018-07-19T11:06:09.914Z,91.30
2018-07-19T11:08:48.469Z,92.60
2018-07-19T11:18:01.883Z,93.00
2018-07-19T11:20:32.228Z,91.00
2018-07-19T11:23:05.826Z,90.70
2018-07-19T11:28:58.236Z,91.10
2018-07-19T11:35:07.031Z,90.10
2018-07-19T11:37:52.953Z,90.30
2018-07-19T11:40:29.339Z,91.00
2018-07-19T11:43:04.167Z,88.90
2018-07-19T11:45:37.826Z,90.40
2018-07-19T11:48:20.471Z,91.20
2018-07-19T11:50:53.139Z,91.50
2018-07-19T11:53:34.347Z,91.30
2018-07-19T11:56:06.515Z,90.40
2018-07-19T11:58:37.789Z,91.30
2018-07-19T12:01:09.247Z,92.10
2018-07-19T12:03:53.280Z,90.80
2018-07-19T12:06:25.639Z,92.00
2018-07-19T12:11:33.624Z,91.70
2018-07-19T12:14:03.833Z,91.00
2018-07-19T12:19:06.217Z,92.80
2018-07-19T12:21:38.103Z,91.10
2018-07-19T12:24:19.606Z,91.80
2018-07-19T12:26:52.976Z,91.20
2018-07-19T12:29:25.163Z,91.60
2018-07-19T12:32:05.832Z,91.30
2018-07-19T12:34:41.963Z,93.10
2018-07-19T12:39:56.230Z,91.20
2018-07-19T12:42:28.251Z,92.30
2018-07-19T12:45:04.796Z,91.70
2018-07-19T12:47:34.590Z,92.60
2018-07-19T12:50:05.847Z,93.30
2018-07-19T12:55:36.823Z,91.40
2018-07-19T12:58:08.270Z,92.40
2018-07-19T13:00:38.643Z,93.20
2018-07-19T13:03:10.609Z,92.80
2018-07-19T13:05:42.376Z,92.60
2018-07-19T13:08:28.246Z,92.20
2018-07-19T13:11:02.449Z,92.80
2018-07-19T13:13:33.424Z,92.40
2018-07-19T13:16:03.704Z,91.90
2018-07-19T13:18:34.603Z,93.10
2018-07-19T13:21:05.565Z,92.90
2018-07-19T13:23:36.849Z,90.90
2018-07-19T13:26:07.319Z,91.40
2018-07-19T13:28:37.726Z,91.90
2018-07-19T13:31:12.528Z,91.70
2018-07-19T13:33:44.625Z,91.20
2018-07-19T13:36:18.048Z,92.70
2018-07-19T13:38:57.705Z,91.20
2018-07-19T13:41:50.837Z,91.40
2018-07-19T13:44:21.163Z,91.20
2018-07-19T13:55:11.124Z,91.30
2018-07-19T13:57:40.888Z,90.50
2018-07-19T14:00:10.904Z,91.40
2018-07-19T14:02:41.493Z,92.10
2018-07-19T14:05:11.455Z,91.40
2018-07-19T14:11:31.996Z,89.80
2018-07-19T14:17:20.432Z,91.00
2018-07-19T14:19:57.004Z,90.30
2018-07-19T14:22:28.051Z,91.20
2018-07-19T14:24:58.397Z,91.20
2018-07-19T14:27:28.610Z,90.70
2018-07-19T14:29:59.591Z,90.60
2018-07-19T14:32:29.770Z,90.90
2018-07-19T14:35:01.545Z,89.60
2018-07-19T14:40:11.243Z,90.90
2018-07-19T14:42:41.412Z,88.80
2018-07-19T14:45:15.771Z,89.80
2018-07-19T14:57:34.256Z,86.60
2018-07-19T15:00:08.972Z,84.20
2018-07-19T15:02:38.009Z,81.60
2018-07-19T15:05:08.102Z,84.30
2018-07-19T15:07:36.438Z,84.80
2018-07-19T15:10:04.874Z,85.00
2018-07-19T15:12:33.646Z,87.60
2018-07-19T15:15:02.013Z,86.30
2018-07-19T15:17:31.692Z,87.10
2018-07-19T15:23:17.779Z,86.80
2018-07-19T15:25:47.647Z,85.50
2018-07-19T15:28:19.560Z,86.50
2018-07-19T15:30:53.866Z,87.50
2018-07-19T15:33:31.928Z,88.10
2018-07-19T15:36:03.439Z,86.80
2018-07-19T15:38:34.368Z,85.00
2018-07-19T15:43:49.448Z,84.10
2018-07-19T15:46:34.239Z,82.60
2018-07-19T15:49:04.813Z,83.00
2018-07-19T15:51:34.814Z,83.40
2018-07-19T15:54:06.415Z,82.10
2018-07-19T15:56:35.780Z,84.40
2018-07-19T15:59:05.094Z,82.80
2018-07-19T16:01:34.262Z,78.80
2018-07-19T16:04:05.933Z,83.40
2018-07-19T16:06:35.029Z,81.50
2018-07-19T16:09:08.384Z,79.20
2018-07-19T16:11:38.850Z,83.80
2018-07-19T16:14:08.200Z,80.90
2018-07-19T16:16:39.445Z,79.80
2018-07-19T16:21:54.968Z,83.10
2018-07-19T16:24:29.877Z,78.40
2018-07-19T16:27:09.672Z,82.40
2018-07-19T16:29:39.210Z,82.30
2018-07-19T16:32:09.755Z,77.40
2018-07-19T16:34:45.443Z,79.00
2018-07-19T16:37:59.607Z,80.40
2018-07-19T16:40:30.829Z,79.40
2018-07-19T16:43:01.102Z,78.00
2018-07-19T16:45:35.380Z,77.90
2018-07-19T16:48:05.536Z,78.40
2018-07-19T16:50:34.781Z,83.80
2018-07-19T16:55:36.805Z,84.80
2018-07-19T16:58:05.984Z,85.00
2018-07-19T17:01:25.042Z,85.40
2018-07-19T17:03:59.300Z,85.40
2018-07-19T17:06:29.315Z,86.60
2018-07-19T17:08:59.392Z,88.60
2018-07-19T17:11:28.948Z,87.20
2018-07-19T17:13:58.718Z,88.10
2018-07-19T17:16:30.122Z,89.10
2018-07-19T17:19:02.607Z,87.60
2018-07-19T17:21:35.026Z,88.60
2018-07-19T17:24:04.766Z,88.70
2018-07-19T17:26:34.208Z,90.10
2018-07-19T17:31:33.666Z,90.00
2018-07-19T17:34:02.980Z,90.00
2018-07-19T17:36:33.575Z,90.50
2018-07-19T17:39:11.365Z,90.70
2018-07-19T17:41:54.658Z,91.30
2018-07-19T17:44:24.093Z,92.60
2018-07-19T17:46:53.646Z,91.40
2018-07-19T17:49:23.082Z,91.10
2018-07-19T17:51:52.305Z,92.00
2018-07-19T17:54:21.941Z,92.00
2018-07-19T17:56:51.062Z,92.10
2018-07-19T17:59:24.063Z,91.90
2018-07-19T18:01:53.635Z,92.10
2018-07-19T18:04:22.807Z,92.40
2018-07-19T18:09:21.369Z,92.50
2018-07-19T18:11:50.604Z,92.00
2018-07-19T18:14:19.786Z,96.00
2018-07-19T18:16:49.307Z,96.60
2018-07-19T18:19:18.448Z,95.40
2018-07-19T18:21:47.670Z,97.90
2018-07-19T18:24:17.793Z,95.70
2018-07-19T18:26:46.971Z,97.30
2018-07-19T18:29:16.172Z,97.30
2018-07-19T18:31:46.602Z,98.20
2018-07-19T18:34:15.762Z,97.20
2018-07-19T18:36:44.858Z,96.30
2018-07-19T18:41:16.404Z,97.20
2018-07-19T18:43:47.415Z,97.40
2018-07-19T18:46:17.153Z,96.70
2018-07-19T18:48:46.493Z,98.00
2018-07-19T18:51:15.951Z,98.10
2018-07-19T18:53:45.718Z,98.70
2018-07-19T18:56:18.530Z,98.00
2018-07-19T18:58:48.065Z,98.30
2018-07-19T19:01:18.298Z,99.70
2018-07-19T19:06:19.212Z,99.90
2018-07-19T19:08:46.955Z,99.90
2018-07-19T19:11:16.436Z,99.90
2018-07-19T19:13:45.702Z,99.90
2018-07-19T19:16:16.348Z,99.90
2018-07-19T19:18:45.533Z,99.90
2018-07-19T19:21:15.027Z,99.90
2018-07-19T19:23:44.659Z,99.90
2018-07-19T19:26:14.593Z,99.90
2018-07-19T19:28:43.966Z,99.90
2018-07-19T19:31:13.782Z,99.90
2018-07-19T19:33:43.128Z,99.90
2018-07-19T19:36:12.756Z,99.90
2018-07-19T19:38:42.712Z,99.90
2018-07-19T19:41:12.300Z,99.90
2018-07-19T19:43:43.762Z,99.90
2018-07-19T19:46:13.436Z,99.90
2018-07-19T19:48:46.359Z,99.90
2018-07-19T19:51:16.494Z,99.90
2018-07-19T19:53:46.128Z,99.90
2018-07-19T19:56:15.353Z,99.90
2018-07-19T19:58:45.751Z,99.90
2018-07-19T20:01:15.936Z,99.90
2018-07-19T20:03:46.183Z,99.90
2018-07-19T20:06:15.677Z,99.90
2018-07-19T20:11:58.458Z,99.90
2018-07-19T20:14:28.958Z,99.90
2018-07-19T20:16:59.056Z,99.90
2018-07-19T20:19:28.251Z,99.90
2018-07-19T20:21:58.040Z,99.90
2018-07-19T20:24:27.356Z,99.90
2018-07-19T20:26:58.116Z,99.90
2018-07-19T20:29:27.577Z,99.90
2018-07-19T20:31:57.216Z,99.90
2018-07-19T20:34:26.397Z,99.90
2018-07-19T20:36:56.215Z,99.90
2018-07-19T20:39:25.597Z,99.90
2018-07-19T20:41:54.749Z,99.90
2018-07-19T20:44:26.903Z,99.90
2018-07-19T20:46:56.323Z,99.90
2018-07-19T20:49:25.433Z,99.90
2018-07-19T20:51:55.038Z,99.90
2018-07-19T20:54:29.366Z,99.90
2018-07-19T20:56:59.400Z,99.90
2018-07-19T20:59:33.573Z,99.90
2018-07-19T21:02:18.282Z,99.90
2018-07-19T21:04:49.187Z,99.90
2018-07-19T21:07:20.739Z,99.90
2018-07-19T21:09:50.006Z,99.90
2018-07-19T21:12:20.700Z,99.90
2018-07-19T21:14:50.800Z,99.90
2018-07-19T21:17:20.196Z,99.90
2018-07-19T21:19:50.952Z,99.90
2018-07-19T21:22:21.111Z,99.90
2018-07-19T21:24:52.209Z,99.90
2018-07-19T21:27:22.002Z,99.90
2018-07-19T21:29:51.378Z,99.90
2018-07-19T21:32:22.579Z,99.90
2018-07-19T21:34:52.709Z,99.90
2018-07-19T21:37:21.830Z,99.90
2018-07-19T21:40:38.362Z,99.90
2018-07-19T21:43:10.172Z,99.90
2018-07-19T21:45:43.212Z,99.90
2018-07-19T21:48:14.623Z,99.90
2018-07-19T21:50:55.277Z,99.90
2018-07-19T21:53:29.898Z,99.90
2018-07-19T21:56:07.223Z,99.90
2018-07-19T21:58:38.684Z,99.90
2018-07-19T22:01:13.737Z,99.90
2018-07-19T22:03:46.580Z,99.90
2018-07-19T22:06:18.268Z,99.90
2018-07-19T22:08:49.180Z,99.90
2018-07-19T22:11:20.359Z,99.90
2018-07-19T22:13:56.600Z,99.90
2018-07-19T22:16:28.959Z,99.90
2018-07-19T22:19:09.274Z,99.90
2018-07-19T22:24:19.531Z,99.90
2018-07-19T22:26:50.449Z,99.90
2018-07-19T22:29:22.406Z,99.90
2018-07-19T22:31:53.831Z,99.90
2018-07-19T22:34:34.298Z,99.90
2018-07-19T22:37:08.117Z,99.90
2018-07-19T22:39:39.584Z,99.90
2018-07-19T22:42:10.700Z,99.90
2018-07-19T22:44:42.526Z,99.90
2018-07-19T22:47:16.221Z,99.90
2018-07-19T22:49:53.704Z,99.90
2018-07-19T22:52:28.687Z,99.90
2018-07-19T22:55:00.800Z,99.90
2018-07-19T22:57:34.138Z,99.90
2018-07-19T23:00:07.786Z,99.90
2018-07-19T23:02:41.241Z,99.90
2018-07-19T23:05:12.989Z,99.90
2018-07-19T23:07:44.798Z,99.90
2018-07-19T23:10:15.766Z,99.90
2018-07-19T23:12:47.176Z,99.90
2018-07-19T23:15:26.132Z,99.90
2018-07-19T23:17:58.532Z,99.90
2018-07-19T23:20:38.311Z,99.90
2018-07-19T23:23:11.733Z,99.90
2018-07-19T23:25:46.917Z,99.90
2018-07-19T23:28:17.924Z,99.90
2018-07-19T23:30:49.114Z,99.90
2018-07-19T23:33:19.977Z,99.90
2018-07-19T23:36:06.270Z,99.90
2018-07-19T23:39:40.909Z,99.90
2018-07-19T23:42:22.161Z,99.90
2018-07-19T23:45:12.931Z,99.90
2018-07-19T23:47:46.972Z,99.90
2018-07-19T23:50:33.799Z,99.90
2018-07-19T23:53:05.946Z,99.90
2018-07-19T23:55:37.623Z,99.90
2018-07-19T23:58:08.714Z,99.90
